Bahia Uno — ECFT — position and weather

sailwx.info

Track history (hours):
 
Tides and Currents Weather Stations Pressure Air Temp Water Temp Dewpoint Dewpoint Depression Visibility Wind Speed Wind Dir Waves Ship Positions

Bahia Uno

Last reported at 2016-Nov-20 22:21 UTC. Time now 2016-Dec-03 13:44 UTC.
Position N 36°09' W 005°26'.
Warning: this ship's position is 12 days out of date.

Length 70 m; draft 5.5 m.

Type: Ship. MMSI: 224127820.

Date/timePositionNaut miles runAvg speedWind from/ knotsBaromVisibWave heightAir tempDewpointWater temp
2016-Nov-20 22:21N 36°09' W 005°26'4 4.1
2016-Nov-20 21:27N 36°05' W 005°25'0 0.0
2016-Nov-20 17:25N 36°05' W 005°25'1 0.8
2016-Nov-20 16:23N 36°06' W 005°25'0 0.0
2016-Nov-20 14:33N 36°06' W 005°25'2 0.1
2016-Nov-19 23:33N 36°07' W 005°25'0 0.0
2016-Nov-19 20:25N 36°07' W 005°25'1 0.1
2016-Nov-19 11:30N 36°06' W 005°24'  
2016-Nov-15 00:13N 36°07' W 005°25'0 0.3
2016-Nov-14 23:37N 36°07' W 005°25'  
Track history (hours):
 
Tides and Currents Weather Stations Pressure Air Temp Water Temp Dewpoint Dewpoint Depression Visibility Wind Speed Wind Dir Waves Ship Positions

Bahia Uno

Last reported at 2016-Nov-20 22:21 UTC. Time now 2016-Dec-03 13:44 UTC.
Position N 36°09' W 005°26'.
Warning: this ship's position is 12 days out of date.

Length 70 m; draft 5.5 m.

Type: Ship. MMSI: 224127820.

Date/timePositionNaut miles runAvg speedWind from/ knotsBaromVisibWave heightAir tempDewpointWater temp
2016-Nov-20 22:21N 36°09' W 005°26'4 4.1
2016-Nov-20 21:27N 36°05' W 005°25'0 0.0
2016-Nov-20 17:25N 36°05' W 005°25'1 0.8
2016-Nov-20 16:23N 36°06' W 005°25'0 0.0
2016-Nov-20 14:33N 36°06' W 005°25'2 0.1
2016-Nov-19 23:33N 36°07' W 005°25'0 0.0
2016-Nov-19 20:25N 36°07' W 005°25'1 0.1
2016-Nov-19 11:30N 36°06' W 005°24'  
2016-Nov-15 00:13N 36°07' W 005°25'0 0.3
2016-Nov-14 23:37N 36°07' W 005°25'  

Dump ship's entire track history